sensor_id;sensor_type;location;lat;lon;timestamp;P1;durP1;ratioP1;P2;durP2;ratioP2
20040;SDS011;10181;48.072;9.884;2023-07-02T00:00:27;14.73;;;6.00;;
20040;SDS011;10181;48.072;9.884;2023-07-02T00:02:53;32.43;;;5.23;;
20040;SDS011;10181;48.072;9.884;2023-07-02T00:05:18;26.13;;;6.97;;
20040;SDS011;10181;48.072;9.884;2023-07-02T00:07:44;10.57;;;8.07;;
20040;SDS011;10181;48.072;9.884;2023-07-02T00:10:10;16.43;;;6.23;;
20040;SDS011;10181;48.072;9.884;2023-07-02T00:12:36;32.37;;;7.37;;
20040;SDS011;10181;48.072;9.884;2023-07-02T00:15:01;24.97;;;7.23;;
20040;SDS011;10181;48.072;9.884;2023-07-02T00:17:27;32.20;;;6.80;;
20040;SDS011;10181;48.072;9.884;2023-07-02T00:19:53;20.73;;;5.50;;
20040;SDS011;10181;48.072;9.884;2023-07-02T00:22:19;28.67;;;6.87;;
20040;SDS011;10181;48.072;9.884;2023-07-02T00:24:45;30.30;;;7.33;;
20040;SDS011;10181;48.072;9.884;2023-07-02T00:27:10;23.27;;;6.10;;
20040;SDS011;10181;48.072;9.884;2023-07-02T00:29:36;22.33;;;5.80;;
20040;SDS011;10181;48.072;9.884;2023-07-02T00:32:02;32.40;;;7.23;;
20040;SDS011;10181;48.072;9.884;2023-07-02T00:34:28;19.97;;;5.27;;
20040;SDS011;10181;48.072;9.884;2023-07-02T00:36:54;16.93;;;6.20;;
20040;SDS011;10181;48.072;9.884;2023-07-02T00:39:19;25.17;;;5.57;;
20040;SDS011;10181;48.072;9.884;2023-07-02T00:41:45;23.43;;;5.70;;
20040;SDS011;10181;48.072;9.884;2023-07-02T00:44:13;23.03;;;7.60;;
20040;SDS011;10181;48.072;9.884;2023-07-02T00:46:39;10.10;;;8.27;;
20040;SDS011;10181;48.072;9.884;2023-07-02T00:49:05;34.47;;;7.77;;
20040;SDS011;10181;48.072;9.884;2023-07-02T00:51:33;25.43;;;6.93;;
20040;SDS011;10181;48.072;9.884;2023-07-02T00:53:58;29.00;;;7.40;;
20040;SDS011;10181;48.072;9.884;2023-07-02T00:56:25;29.57;;;7.17;;
20040;SDS011;10181;48.072;9.884;2023-07-02T00:58:53;22.57;;;6.07;;
20040;SDS011;10181;48.072;9.884;2023-07-02T01:01:23;34.17;;;6.87;;
20040;SDS011;10181;48.072;9.884;2023-07-02T01:03:51;35.87;;;8.13;;
20040;SDS011;10181;48.072;9.884;2023-07-02T01:06:30;30.27;;;7.97;;
20040;SDS011;10181;48.072;9.884;2023-07-02T01:09:01;25.43;;;7.40;;
20040;SDS011;10181;48.072;9.884;2023-07-02T01:11:36;36.17;;;7.23;;
20040;SDS011;10181;48.072;9.884;2023-07-02T01:14:07;34.40;;;8.17;;
20040;SDS011;10181;48.072;9.884;2023-07-02T01:16:38;30.90;;;5.90;;
20040;SDS011;10181;48.072;9.884;2023-07-02T01:19:11;29.97;;;8.00;;
20040;SDS011;10181;48.072;9.884;2023-07-02T01:21:43;29.60;;;7.57;;
20040;SDS011;10181;48.072;9.884;2023-07-02T01:24:10;25.43;;;6.23;;
20040;SDS011;10181;48.072;9.884;2023-07-02T01:26:36;34.40;;;6.23;;
20040;SDS011;10181;48.072;9.884;2023-07-02T01:29:18;32.67;;;7.90;;
20040;SDS011;10181;48.072;9.884;2023-07-02T01:31:45;31.00;;;7.10;;
20040;SDS011;10181;48.072;9.884;2023-07-02T01:34:12;31.67;;;6.60;;
20040;SDS011;10181;48.072;9.884;2023-07-02T01:36:38;30.90;;;7.23;;
20040;SDS011;10181;48.072;9.884;2023-07-02T01:39:05;37.37;;;8.47;;
20040;SDS011;10181;48.072;9.884;2023-07-02T01:41:50;34.23;;;8.33;;
20040;SDS011;10181;48.072;9.884;2023-07-02T01:44:17;29.47;;;7.40;;
20040;SDS011;10181;48.072;9.884;2023-07-02T01:46:44;24.13;;;6.70;;
20040;SDS011;10181;48.072;9.884;2023-07-02T01:49:13;31.43;;;7.50;;
20040;SDS011;10181;48.072;9.884;2023-07-02T01:51:49;31.27;;;7.20;;
20040;SDS011;10181;48.072;9.884;2023-07-02T01:54:15;39.77;;;6.80;;
20040;SDS011;10181;48.072;9.884;2023-07-02T01:56:41;22.93;;;4.93;;
20040;SDS011;10181;48.072;9.884;2023-07-02T01:59:07;35.07;;;6.60;;
20040;SDS011;10181;48.072;9.884;2023-07-02T02:01:33;23.03;;;5.40;;
20040;SDS011;10181;48.072;9.884;2023-07-02T02:03:59;25.47;;;5.83;;
20040;SDS011;10181;48.072;9.884;2023-07-02T02:06:25;16.93;;;5.50;;
20040;SDS011;10181;48.072;9.884;2023-07-02T02:08:50;28.83;;;7.20;;
20040;SDS011;10181;48.072;9.884;2023-07-02T02:11:16;16.97;;;8.87;;
20040;SDS011;10181;48.072;9.884;2023-07-02T02:13:42;29.03;;;7.43;;
20040;SDS011;10181;48.072;9.884;2023-07-02T02:16:07;30.03;;;5.90;;
20040;SDS011;10181;48.072;9.884;2023-07-02T02:18:33;33.63;;;7.03;;
20040;SDS011;10181;48.072;9.884;2023-07-02T02:20:59;30.90;;;6.03;;
20040;SDS011;10181;48.072;9.884;2023-07-02T02:23:25;23.93;;;6.93;;
20040;SDS011;10181;48.072;9.884;2023-07-02T02:25:51;38.20;;;7.67;;
20040;SDS011;10181;48.072;9.884;2023-07-02T02:28:16;36.60;;;6.67;;
20040;SDS011;10181;48.072;9.884;2023-07-02T02:30:42;34.00;;;7.40;;
20040;SDS011;10181;48.072;9.884;2023-07-02T02:33:08;30.27;;;6.60;;
20040;SDS011;10181;48.072;9.884;2023-07-02T02:35:33;32.17;;;8.47;;
20040;SDS011;10181;48.072;9.884;2023-07-02T02:38:03;27.03;;;5.47;;
20040;SDS011;10181;48.072;9.884;2023-07-02T02:40:29;25.03;;;5.73;;
20040;SDS011;10181;48.072;9.884;2023-07-02T02:42:55;18.43;;;5.60;;
20040;SDS011;10181;48.072;9.884;2023-07-02T02:45:21;22.10;;;6.13;;
20040;SDS011;10181;48.072;9.884;2023-07-02T02:47:46;24.47;;;6.03;;
20040;SDS011;10181;48.072;9.884;2023-07-02T02:50:12;39.13;;;7.73;;
20040;SDS011;10181;48.072;9.884;2023-07-02T02:52:39;30.93;;;7.70;;
20040;SDS011;10181;48.072;9.884;2023-07-02T02:55:05;6.37;;;5.77;;
20040;SDS011;10181;48.072;9.884;2023-07-02T02:57:32;32.33;;;8.23;;
20040;SDS011;10181;48.072;9.884;2023-07-02T02:59:59;22.60;;;5.20;;
20040;SDS011;10181;48.072;9.884;2023-07-02T03:02:24;24.73;;;7.40;;
20040;SDS011;10181;48.072;9.884;2023-07-02T03:04:50;29.73;;;6.50;;
20040;SDS011;10181;48.072;9.884;2023-07-02T03:07:16;33.57;;;7.80;;
20040;SDS011;10181;48.072;9.884;2023-07-02T03:09:42;36.23;;;8.57;;
20040;SDS011;10181;48.072;9.884;2023-07-02T03:12:08;34.40;;;8.07;;
20040;SDS011;10181;48.072;9.884;2023-07-02T03:14:34;35.33;;;7.73;;
20040;SDS011;10181;48.072;9.884;2023-07-02T03:17:00;31.20;;;7.53;;
20040;SDS011;10181;48.072;9.884;2023-07-02T03:19:25;24.77;;;6.90;;
20040;SDS011;10181;48.072;9.884;2023-07-02T03:21:51;39.80;;;7.60;;
20040;SDS011;10181;48.072;9.884;2023-07-02T03:24:17;33.93;;;7.50;;
20040;SDS011;10181;48.072;9.884;2023-07-02T03:26:43;29.13;;;7.67;;
20040;SDS011;10181;48.072;9.884;2023-07-02T03:29:09;35.97;;;9.10;;
20040;SDS011;10181;48.072;9.884;2023-07-02T03:31:35;34.70;;;8.73;;
20040;SDS011;10181;48.072;9.884;2023-07-02T03:34:06;37.60;;;8.30;;
20040;SDS011;10181;48.072;9.884;2023-07-02T03:36:34;37.43;;;8.10;;
20040;SDS011;10181;48.072;9.884;2023-07-02T03:39:00;29.53;;;7.40;;
20040;SDS011;10181;48.072;9.884;2023-07-02T03:41:25;37.40;;;8.20;;
20040;SDS011;10181;48.072;9.884;2023-07-02T03:43:53;30.37;;;5.23;;
20040;SDS011;10181;48.072;9.884;2023-07-02T03:46:19;29.23;;;7.00;;
20040;SDS011;10181;48.072;9.884;2023-07-02T03:48:45;34.53;;;8.70;;
20040;SDS011;10181;48.072;9.884;2023-07-02T03:51:10;37.90;;;8.43;;
20040;SDS011;10181;48.072;9.884;2023-07-02T03:53:39;33.23;;;7.97;;
20040;SDS011;10181;48.072;9.884;2023-07-02T03:56:08;31.40;;;7.63;;
20040;SDS011;10181;48.072;9.884;2023-07-02T03:58:33;32.97;;;7.03;;
20040;SDS011;10181;48.072;9.884;2023-07-02T04:00:59;22.67;;;5.90;;
20040;SDS011;10181;48.072;9.884;2023-07-02T04:03:25;26.83;;;7.00;;
20040;SDS011;10181;48.072;9.884;2023-07-02T04:05:51;30.77;;;8.17;;
20040;SDS011;10181;48.072;9.884;2023-07-02T04:08:17;29.83;;;7.73;;
20040;SDS011;10181;48.072;9.884;2023-07-02T04:10:43;34.00;;;7.80;;
20040;SDS011;10181;48.072;9.884;2023-07-02T04:13:09;30.70;;;6.13;;
20040;SDS011;10181;48.072;9.884;2023-07-02T04:15:34;29.27;;;7.17;;
20040;SDS011;10181;48.072;9.884;2023-07-02T04:18:00;26.40;;;6.83;;
20040;SDS011;10181;48.072;9.884;2023-07-02T04:20:26;34.20;;;8.57;;
20040;SDS011;10181;48.072;9.884;2023-07-02T04:22:53;33.67;;;7.83;;
20040;SDS011;10181;48.072;9.884;2023-07-02T04:25:19;29.37;;;7.87;;
20040;SDS011;10181;48.072;9.884;2023-07-02T04:27:45;39.20;;;7.43;;
20040;SDS011;10181;48.072;9.884;2023-07-02T04:30:11;24.00;;;6.97;;
20040;SDS011;10181;48.072;9.884;2023-07-02T04:32:37;31.87;;;7.20;;
20040;SDS011;10181;48.072;9.884;2023-07-02T04:35:04;36.67;;;8.13;;
20040;SDS011;10181;48.072;9.884;2023-07-02T04:37:31;32.60;;;9.17;;
20040;SDS011;10181;48.072;9.884;2023-07-02T04:39:57;24.80;;;6.20;;
20040;SDS011;10181;48.072;9.884;2023-07-02T04:42:22;37.17;;;8.30;;
20040;SDS011;10181;48.072;9.884;2023-07-02T04:44:52;29.43;;;7.27;;
20040;SDS011;10181;48.072;9.884;2023-07-02T04:47:19;25.37;;;6.20;;
20040;SDS011;10181;48.072;9.884;2023-07-02T04:49:45;20.97;;;8.07;;
20040;SDS011;10181;48.072;9.884;2023-07-02T04:52:11;23.13;;;8.03;;
20040;SDS011;10181;48.072;9.884;2023-07-02T04:54:37;27.03;;;6.40;;
20040;SDS011;10181;48.072;9.884;2023-07-02T04:57:03;37.00;;;7.70;;
20040;SDS011;10181;48.072;9.884;2023-07-02T04:59:28;25.33;;;8.37;;
20040;SDS011;10181;48.072;9.884;2023-07-02T05:01:54;37.17;;;8.10;;
20040;SDS011;10181;48.072;9.884;2023-07-02T05:04:20;18.80;;;8.60;;
20040;SDS011;10181;48.072;9.884;2023-07-02T05:06:46;33.47;;;7.10;;
20040;SDS011;10181;48.072;9.884;2023-07-02T05:09:11;31.73;;;6.77;;
20040;SDS011;10181;48.072;9.884;2023-07-02T05:11:37;23.33;;;5.57;;
20040;SDS011;10181;48.072;9.884;2023-07-02T05:14:03;27.53;;;6.07;;
20040;SDS011;10181;48.072;9.884;2023-07-02T05:16:29;37.10;;;7.93;;
20040;SDS011;10181;48.072;9.884;2023-07-02T05:18:54;30.60;;;7.80;;
20040;SDS011;10181;48.072;9.884;2023-07-02T05:21:20;39.87;;;8.50;;
20040;SDS011;10181;48.072;9.884;2023-07-02T05:23:46;25.30;;;6.00;;
20040;SDS011;10181;48.072;9.884;2023-07-02T05:26:12;24.50;;;6.53;;
20040;SDS011;10181;48.072;9.884;2023-07-02T05:28:38;33.23;;;7.10;;
20040;SDS011;10181;48.072;9.884;2023-07-02T05:31:03;44.53;;;8.90;;
20040;SDS011;10181;48.072;9.884;2023-07-02T05:33:29;34.70;;;9.40;;
20040;SDS011;10181;48.072;9.884;2023-07-02T05:35:57;37.60;;;7.53;;
20040;SDS011;10181;48.072;9.884;2023-07-02T05:38:23;24.63;;;5.87;;
20040;SDS011;10181;48.072;9.884;2023-07-02T05:40:49;29.63;;;8.23;;
20040;SDS011;10181;48.072;9.884;2023-07-02T05:43:15;37.00;;;8.33;;
20040;SDS011;10181;48.072;9.884;2023-07-02T05:45:40;35.60;;;9.80;;
20040;SDS011;10181;48.072;9.884;2023-07-02T05:48:06;17.97;;;9.07;;
20040;SDS011;10181;48.072;9.884;2023-07-02T05:50:32;31.57;;;7.07;;
20040;SDS011;10181;48.072;9.884;2023-07-02T05:52:59;35.20;;;9.33;;
20040;SDS011;10181;48.072;9.884;2023-07-02T05:55:24;23.10;;;6.00;;
20040;SDS011;10181;48.072;9.884;2023-07-02T05:57:50;36.87;;;9.50;;
20040;SDS011;10181;48.072;9.884;2023-07-02T06:00:16;32.37;;;7.43;;
20040;SDS011;10181;48.072;9.884;2023-07-02T06:02:42;35.13;;;8.80;;
20040;SDS011;10181;48.072;9.884;2023-07-02T06:05:07;31.40;;;7.13;;
20040;SDS011;10181;48.072;9.884;2023-07-02T06:07:33;37.27;;;9.03;;
20040;SDS011;10181;48.072;9.884;2023-07-02T06:09:59;37.47;;;9.30;;
20040;SDS011;10181;48.072;9.884;2023-07-02T06:12:24;23.40;;;8.20;;
20040;SDS011;10181;48.072;9.884;2023-07-02T06:14:50;23.93;;;5.77;;
20040;SDS011;10181;48.072;9.884;2023-07-02T06:17:16;39.40;;;8.77;;
20040;SDS011;10181;48.072;9.884;2023-07-02T06:19:41;29.33;;;8.17;;
20040;SDS011;10181;48.072;9.884;2023-07-02T06:22:07;31.17;;;8.63;;
20040;SDS011;10181;48.072;9.884;2023-07-02T06:24:33;25.50;;;9.23;;
20040;SDS011;10181;48.072;9.884;2023-07-02T06:26:58;32.27;;;9.83;;
20040;SDS011;10181;48.072;9.884;2023-07-02T06:29:24;21.03;;;6.77;;
20040;SDS011;10181;48.072;9.884;2023-07-02T06:31:50;35.50;;;8.70;;
20040;SDS011;10181;48.072;9.884;2023-07-02T06:34:17;26.83;;;8.87;;
20040;SDS011;10181;48.072;9.884;2023-07-02T06:36:45;27.40;;;7.00;;
20040;SDS011;10181;48.072;9.884;2023-07-02T06:39:11;38.00;;;9.80;;
20040;SDS011;10181;48.072;9.884;2023-07-02T06:41:37;31.23;;;9.00;;
20040;SDS011;10181;48.072;9.884;2023-07-02T06:44:03;32.60;;;10.10;;
20040;SDS011;10181;48.072;9.884;2023-07-02T06:46:31;15.43;;;6.97;;
20040;SDS011;10181;48.072;9.884;2023-07-02T06:48:57;33.60;;;9.60;;
20040;SDS011;10181;48.072;9.884;2023-07-02T06:51:23;39.30;;;9.10;;
20040;SDS011;10181;48.072;9.884;2023-07-02T06:53:51;29.47;;;9.57;;
20040;SDS011;10181;48.072;9.884;2023-07-02T06:56:16;34.90;;;8.87;;
20040;SDS011;10181;48.072;9.884;2023-07-02T06:58:42;24.20;;;8.03;;
20040;SDS011;10181;48.072;9.884;2023-07-02T07:01:08;24.17;;;7.97;;
20040;SDS011;10181;48.072;9.884;2023-07-02T07:03:34;22.93;;;6.67;;
20040;SDS011;10181;48.072;9.884;2023-07-02T07:06:00;37.50;;;9.30;;
20040;SDS011;10181;48.072;9.884;2023-07-02T07:08:26;24.83;;;7.23;;
20040;SDS011;10181;48.072;9.884;2023-07-02T07:10:52;32.70;;;9.57;;
20040;SDS011;10181;48.072;9.884;2023-07-02T07:13:17;32.77;;;10.33;;
20040;SDS011;10181;48.072;9.884;2023-07-02T07:15:43;42.63;;;11.10;;
20040;SDS011;10181;48.072;9.884;2023-07-02T07:18:09;31.83;;;9.97;;
20040;SDS011;10181;48.072;9.884;2023-07-02T07:20:35;29.70;;;10.80;;
20040;SDS011;10181;48.072;9.884;2023-07-02T07:23:04;20.57;;;7.20;;
20040;SDS011;10181;48.072;9.884;2023-07-02T07:25:30;43.40;;;10.50;;
20040;SDS011;10181;48.072;9.884;2023-07-02T07:27:57;33.70;;;9.57;;
20040;SDS011;10181;48.072;9.884;2023-07-02T07:30:24;32.57;;;10.73;;
20040;SDS011;10181;48.072;9.884;2023-07-02T07:32:50;38.77;;;10.40;;
20040;SDS011;10181;48.072;9.884;2023-07-02T07:35:17;35.87;;;10.23;;
20040;SDS011;10181;48.072;9.884;2023-07-02T07:37:43;37.30;;;12.37;;
20040;SDS011;10181;48.072;9.884;2023-07-02T07:40:09;20.20;;;9.33;;
20040;SDS011;10181;48.072;9.884;2023-07-02T07:42:39;31.90;;;11.30;;
20040;SDS011;10181;48.072;9.884;2023-07-02T07:45:07;34.23;;;10.60;;
20040;SDS011;10181;48.072;9.884;2023-07-02T07:47:33;34.87;;;11.27;;
20040;SDS011;10181;48.072;9.884;2023-07-02T07:49:58;30.20;;;9.33;;
20040;SDS011;10181;48.072;9.884;2023-07-02T07:52:24;19.67;;;8.60;;
20040;SDS011;10181;48.072;9.884;2023-07-02T07:54:50;22.97;;;9.47;;
20040;SDS011;10181;48.072;9.884;2023-07-02T07:57:15;35.53;;;13.53;;
20040;SDS011;10181;48.072;9.884;2023-07-02T07:59:41;26.70;;;8.07;;
20040;SDS011;10181;48.072;9.884;2023-07-02T08:02:07;23.57;;;8.67;;
20040;SDS011;10181;48.072;9.884;2023-07-02T08:04:32;20.43;;;8.67;;
20040;SDS011;10181;48.072;9.884;2023-07-02T08:06:58;30.70;;;9.30;;
20040;SDS011;10181;48.072;9.884;2023-07-02T08:09:24;37.77;;;14.53;;
20040;SDS011;10181;48.072;9.884;2023-07-02T08:11:50;13.73;;;8.37;;
20040;SDS011;10181;48.072;9.884;2023-07-02T08:14:19;28.57;;;9.60;;
20040;SDS011;10181;48.072;9.884;2023-07-02T08:16:44;31.90;;;12.20;;
20040;SDS011;10181;48.072;9.884;2023-07-02T08:19:10;28.97;;;10.80;;
20040;SDS011;10181;48.072;9.884;2023-07-02T08:21:36;35.77;;;10.40;;
20040;SDS011;10181;48.072;9.884;2023-07-02T08:24:02;38.17;;;13.40;;
20040;SDS011;10181;48.072;9.884;2023-07-02T08:26:28;28.67;;;13.67;;
20040;SDS011;10181;48.072;9.884;2023-07-02T08:28:54;47.97;;;16.37;;
20040;SDS011;10181;48.072;9.884;2023-07-02T08:31:20;45.57;;;16.60;;
20040;SDS011;10181;48.072;9.884;2023-07-02T08:33:45;38.67;;;14.87;;
20040;SDS011;10181;48.072;9.884;2023-07-02T08:36:11;50.40;;;16.00;;
20040;SDS011;10181;48.072;9.884;2023-07-02T08:38:39;29.87;;;12.57;;
20040;SDS011;10181;48.072;9.884;2023-07-02T08:41:07;14.40;;;12.90;;
20040;SDS011;10181;48.072;9.884;2023-07-02T08:43:33;42.97;;;14.70;;
20040;SDS011;10181;48.072;9.884;2023-07-02T08:46:00;31.17;;;12.37;;
20040;SDS011;10181;48.072;9.884;2023-07-02T08:48:26;30.30;;;11.87;;
20040;SDS011;10181;48.072;9.884;2023-07-02T08:50:54;30.47;;;12.93;;
20040;SDS011;10181;48.072;9.884;2023-07-02T08:53:20;32.53;;;12.53;;
20040;SDS011;10181;48.072;9.884;2023-07-02T08:55:50;31.77;;;12.23;;
20040;SDS011;10181;48.072;9.884;2023-07-02T08:58:16;33.00;;;13.77;;
20040;SDS011;10181;48.072;9.884;2023-07-02T09:01:03;20.87;;;13.77;;
20040;SDS011;10181;48.072;9.884;2023-07-02T09:03:32;16.53;;;12.30;;
20040;SDS011;10181;48.072;9.884;2023-07-02T09:05:58;16.67;;;12.93;;
20040;SDS011;10181;48.072;9.884;2023-07-02T09:08:27;13.33;;;10.63;;
20040;SDS011;10181;48.072;9.884;2023-07-02T09:10:53;32.43;;;14.10;;
20040;SDS011;10181;48.072;9.884;2023-07-02T09:13:19;32.90;;;13.65;;
20040;SDS011;10181;48.072;9.884;2023-07-02T09:15:45;38.63;;;15.20;;
20040;SDS011;10181;48.072;9.884;2023-07-02T09:20:41;20.38;;;13.25;;
20040;SDS011;10181;48.072;9.884;2023-07-02T09:23:07;19.13;;;12.77;;
20040;SDS011;10181;48.072;9.884;2023-07-02T09:25:37;37.75;;;16.13;;
20040;SDS011;10181;48.072;9.884;2023-07-02T09:28:13;41.53;;;13.73;;
20040;SDS011;10181;48.072;9.884;2023-07-02T09:30:55;40.37;;;14.50;;
20040;SDS011;10181;48.072;9.884;2023-07-02T09:33:25;42.58;;;15.35;;
20040;SDS011;10181;48.072;9.884;2023-07-02T09:35:53;31.88;;;12.90;;
20040;SDS011;10181;48.072;9.884;2023-07-02T09:38:20;29.08;;;13.13;;
20040;SDS011;10181;48.072;9.884;2023-07-02T09:40:49;40.60;;;13.68;;
20040;SDS011;10181;48.072;9.884;2023-07-02T09:43:16;27.10;;;13.15;;
20040;SDS011;10181;48.072;9.884;2023-07-02T09:45:44;13.33;;;8.60;;
20040;SDS011;10181;48.072;9.884;2023-07-02T09:48:14;34.00;;;12.73;;
20040;SDS011;10181;48.072;9.884;2023-07-02T09:50:45;46.30;;;15.07;;
20040;SDS011;10181;48.072;9.884;2023-07-02T09:53:12;44.77;;;14.50;;
20040;SDS011;10181;48.072;9.884;2023-07-02T09:55:39;40.90;;;15.27;;
20040;SDS011;10181;48.072;9.884;2023-07-02T09:58:07;31.40;;;12.70;;
20040;SDS011;10181;48.072;9.884;2023-07-02T10:00:34;37.25;;;14.50;;
20040;SDS011;10181;48.072;9.884;2023-07-02T10:03:00;15.63;;;11.38;;
20040;SDS011;10181;48.072;9.884;2023-07-02T10:05:27;14.57;;;10.35;;
20040;SDS011;10181;48.072;9.884;2023-07-02T10:07:58;15.48;;;10.73;;
20040;SDS011;10181;48.072;9.884;2023-07-02T10:10:46;37.45;;;15.30;;
20040;SDS011;10181;48.072;9.884;2023-07-02T10:13:13;31.42;;;14.27;;
20040;SDS011;10181;48.072;9.884;2023-07-02T10:15:39;39.72;;;14.98;;
20040;SDS011;10181;48.072;9.884;2023-07-02T10:18:05;35.75;;;14.70;;
20040;SDS011;10181;48.072;9.884;2023-07-02T10:20:40;17.17;;;12.68;;
20040;SDS011;10181;48.072;9.884;2023-07-02T10:23:07;19.77;;;13.30;;
20040;SDS011;10181;48.072;9.884;2023-07-02T10:25:34;30.15;;;13.68;;
20040;SDS011;10181;48.072;9.884;2023-07-02T10:28:14;31.50;;;15.43;;
20040;SDS011;10181;48.072;9.884;2023-07-02T10:30:45;38.78;;;14.15;;
20040;SDS011;10181;48.072;9.884;2023-07-02T10:33:11;28.52;;;13.30;;
20040;SDS011;10181;48.072;9.884;2023-07-02T10:35:42;21.25;;;13.20;;
20040;SDS011;10181;48.072;9.884;2023-07-02T10:38:28;29.40;;;14.13;;
20040;SDS011;10181;48.072;9.884;2023-07-02T10:40:57;42.40;;;16.17;;
20040;SDS011;10181;48.072;9.884;2023-07-02T10:43:27;41.03;;;14.80;;
20040;SDS011;10181;48.072;9.884;2023-07-02T10:45:54;43.53;;;15.10;;
20040;SDS011;10181;48.072;9.884;2023-07-02T10:48:20;20.90;;;13.57;;
20040;SDS011;10181;48.072;9.884;2023-07-02T10:50:45;22.63;;;13.55;;
20040;SDS011;10181;48.072;9.884;2023-07-02T10:53:15;29.52;;;13.68;;
20040;SDS011;10181;48.072;9.884;2023-07-02T10:55:41;37.25;;;14.57;;
20040;SDS011;10181;48.072;9.884;2023-07-02T10:58:08;24.73;;;14.07;;
20040;SDS011;10181;48.072;9.884;2023-07-02T11:00:47;15.00;;;11.15;;
20040;SDS011;10181;48.072;9.884;2023-07-02T11:03:18;18.85;;;13.32;;
20040;SDS011;10181;48.072;9.884;2023-07-02T11:05:45;15.77;;;10.75;;
20040;SDS011;10181;48.072;9.884;2023-07-02T11:08:12;44.35;;;15.82;;
20040;SDS011;10181;48.072;9.884;2023-07-02T11:10:37;39.00;;;14.98;;
20040;SDS011;10181;48.072;9.884;2023-07-02T11:13:13;45.47;;;18.48;;
20040;SDS011;10181;48.072;9.884;2023-07-02T11:15:42;39.85;;;15.70;;
20040;SDS011;10181;48.072;9.884;2023-07-02T11:20:36;42.50;;;16.20;;
20040;SDS011;10181;48.072;9.884;2023-07-02T11:23:03;42.30;;;16.63;;
20040;SDS011;10181;48.072;9.884;2023-07-02T11:25:28;34.05;;;13.40;;
20040;SDS011;10181;48.072;9.884;2023-07-02T11:28:04;46.55;;;16.00;;
20040;SDS011;10181;48.072;9.884;2023-07-02T11:30:30;18.08;;;13.30;;
20040;SDS011;10181;48.072;9.884;2023-07-02T11:32:56;45.28;;;15.57;;
20040;SDS011;10181;48.072;9.884;2023-07-02T11:35:22;40.67;;;14.45;;
20040;SDS011;10181;48.072;9.884;2023-07-02T11:37:58;41.38;;;14.68;;
20040;SDS011;10181;48.072;9.884;2023-07-02T11:40:24;40.15;;;16.63;;
20040;SDS011;10181;48.072;9.884;2023-07-02T11:42:50;15.60;;;10.48;;
20040;SDS011;10181;48.072;9.884;2023-07-02T11:45:15;21.95;;;14.50;;
20040;SDS011;10181;48.072;9.884;2023-07-02T11:47:41;36.03;;;13.85;;
20040;SDS011;10181;48.072;9.884;2023-07-02T11:50:07;30.05;;;17.38;;
20040;SDS011;10181;48.072;9.884;2023-07-02T11:52:33;21.45;;;12.98;;
20040;SDS011;10181;48.072;9.884;2023-07-02T11:54:59;24.73;;;12.85;;
20040;SDS011;10181;48.072;9.884;2023-07-02T11:57:24;18.10;;;12.73;;
20040;SDS011;10181;48.072;9.884;2023-07-02T11:59:50;42.58;;;14.32;;
20040;SDS011;10181;48.072;9.884;2023-07-02T12:02:17;15.43;;;12.63;;
20040;SDS011;10181;48.072;9.884;2023-07-02T12:04:43;38.50;;;16.30;;
20040;SDS011;10181;48.072;9.884;2023-07-02T12:07:09;46.15;;;15.68;;
20040;SDS011;10181;48.072;9.884;2023-07-02T12:09:35;47.38;;;14.93;;
20040;SDS011;10181;48.072;9.884;2023-07-02T12:12:01;34.90;;;13.32;;
20040;SDS011;10181;48.072;9.884;2023-07-02T12:14:27;33.47;;;14.13;;
20040;SDS011;10181;48.072;9.884;2023-07-02T12:16:53;27.08;;;12.77;;
20040;SDS011;10181;48.072;9.884;2023-07-02T12:19:19;13.63;;;10.32;;
20040;SDS011;10181;48.072;9.884;2023-07-02T12:21:44;12.25;;;10.43;;
20040;SDS011;10181;48.072;9.884;2023-07-02T12:24:10;11.65;;;10.10;;
20040;SDS011;10181;48.072;9.884;2023-07-02T12:26:36;26.90;;;12.40;;
20040;SDS011;10181;48.072;9.884;2023-07-02T12:29:05;12.90;;;10.50;;
20040;SDS011;10181;48.072;9.884;2023-07-02T12:31:31;27.10;;;12.32;;
20040;SDS011;10181;48.072;9.884;2023-07-02T12:33:57;12.35;;;10.68;;
20040;SDS011;10181;48.072;9.884;2023-07-02T12:36:23;12.57;;;8.68;;
20040;SDS011;10181;48.072;9.884;2023-07-02T12:38:48;33.75;;;11.38;;
20040;SDS011;10181;48.072;9.884;2023-07-02T12:41:14;33.25;;;11.55;;
20040;SDS011;10181;48.072;9.884;2023-07-02T12:43:40;21.75;;;11.63;;
20040;SDS011;10181;48.072;9.884;2023-07-02T12:46:06;10.90;;;8.43;;
20040;SDS011;10181;48.072;9.884;2023-07-02T12:48:32;20.98;;;12.13;;
20040;SDS011;10181;48.072;9.884;2023-07-02T12:50:58;34.72;;;13.70;;
20040;SDS011;10181;48.072;9.884;2023-07-02T12:53:25;33.47;;;11.80;;
20040;SDS011;10181;48.072;9.884;2023-07-02T12:55:51;11.75;;;9.32;;
20040;SDS011;10181;48.072;9.884;2023-07-02T12:58:17;10.68;;;8.48;;
20040;SDS011;10181;48.072;9.884;2023-07-02T13:00:43;32.50;;;14.00;;
20040;SDS011;10181;48.072;9.884;2023-07-02T13:03:10;11.73;;;9.52;;
20040;SDS011;10181;48.072;9.884;2023-07-02T13:05:37;8.30;;;7.45;;
20040;SDS011;10181;48.072;9.884;2023-07-02T13:08:03;32.17;;;10.75;;
20040;SDS011;10181;48.072;9.884;2023-07-02T13:10:29;36.90;;;11.50;;
20040;SDS011;10181;48.072;9.884;2023-07-02T13:12:55;35.20;;;11.98;;
20040;SDS011;10181;48.072;9.884;2023-07-02T13:15:21;27.50;;;11.85;;
20040;SDS011;10181;48.072;9.884;2023-07-02T13:17:47;26.98;;;11.05;;
20040;SDS011;10181;48.072;9.884;2023-07-02T13:20:13;10.18;;;7.78;;
20040;SDS011;10181;48.072;9.884;2023-07-02T13:22:39;41.40;;;12.45;;
20040;SDS011;10181;48.072;9.884;2023-07-02T13:25:05;8.45;;;7.10;;
20040;SDS011;10181;48.072;9.884;2023-07-02T13:27:32;26.73;;;9.75;;
20040;SDS011;10181;48.072;9.884;2023-07-02T13:29:57;22.80;;;10.45;;
20040;SDS011;10181;48.072;9.884;2023-07-02T13:32:23;11.43;;;9.40;;
20040;SDS011;10181;48.072;9.884;2023-07-02T13:34:49;42.67;;;11.27;;
20040;SDS011;10181;48.072;9.884;2023-07-02T13:37:15;6.82;;;6.13;;
20040;SDS011;10181;48.072;9.884;2023-07-02T13:39:44;28.23;;;10.10;;
20040;SDS011;10181;48.072;9.884;2023-07-02T13:42:13;8.80;;;7.28;;
20040;SDS011;10181;48.072;9.884;2023-07-02T13:44:39;10.05;;;6.88;;
20040;SDS011;10181;48.072;9.884;2023-07-02T13:47:05;17.13;;;12.40;;
20040;SDS011;10181;48.072;9.884;2023-07-02T13:49:31;22.73;;;11.13;;
20040;SDS011;10181;48.072;9.884;2023-07-02T13:51:58;25.63;;;10.98;;
20040;SDS011;10181;48.072;9.884;2023-07-02T13:54:24;38.70;;;12.52;;
20040;SDS011;10181;48.072;9.884;2023-07-02T13:56:50;9.85;;;8.80;;
20040;SDS011;10181;48.072;9.884;2023-07-02T13:59:16;20.13;;;10.18;;
20040;SDS011;10181;48.072;9.884;2023-07-02T14:01:43;25.40;;;11.65;;
20040;SDS011;10181;48.072;9.884;2023-07-02T14:04:09;40.70;;;11.23;;
20040;SDS011;10181;48.072;9.884;2023-07-02T14:06:35;31.13;;;10.93;;
20040;SDS011;10181;48.072;9.884;2023-07-02T14:09:02;29.80;;;11.30;;
20040;SDS011;10181;48.072;9.884;2023-07-02T14:11:28;9.27;;;7.22;;
20040;SDS011;10181;48.072;9.884;2023-07-02T14:13:55;8.40;;;7.15;;
20040;SDS011;10181;48.072;9.884;2023-07-02T14:16:21;12.15;;;10.20;;
20040;SDS011;10181;48.072;9.884;2023-07-02T14:18:47;30.92;;;9.70;;
20040;SDS011;10181;48.072;9.884;2023-07-02T14:21:13;26.23;;;10.15;;
20040;SDS011;10181;48.072;9.884;2023-07-02T14:23:39;14.95;;;9.00;;
20040;SDS011;10181;48.072;9.884;2023-07-02T14:26:04;8.65;;;7.25;;
20040;SDS011;10181;48.072;9.884;2023-07-02T14:28:30;8.70;;;7.22;;
20040;SDS011;10181;48.072;9.884;2023-07-02T14:30:57;35.83;;;10.88;;